Longfield, United Kingdom
Current Conditions -  °F | °C
As of 10:50 AM on Friday 19 Dec 2014 (Local Time) from EGLC Reporting Station
Few Clouds Few Clouds  
Wind Chill: 50°   Ceiling: Unl
Heat Index: 50°   Visibility: 6mi
Dew Point: 37°   Wind: 18mph
Humidity: 62%   Direction: 290°WNW
Pressure: 29.97"   Gusts: NA
Location:  51.4°N, 0.3°E
Report Text: EGLC 191050Z 29016KT 9999 FEW030 10/03 Q1015
Loading
Personal Weather Stations






























Interactive Weather Map New forecast layout! Learn more

10-Day Weather Forecast

Advertisements
Track Severe Weather on mobile